Hlavní strana
METAR-TAF:

METAR-TAF

Letiště :

Macon County Airport

Franklin, Severní Karolína, Spojené státy americké

zeměpisná šířka: 35-13N, zeměpisná délka: 083-25W, výška: 616 m

Aktuální stav počasí

Zpráva byla vytvořena před 24 minutami, v 00:50 UTC
Bezvětří
Teplota 22°C
Vlhkost vzduchu 94%
Tlak 1017 hPa
Viditelnost: 16.1 km
Polojasno ve výšce 6000 ft
Oblačno až skoro zataženo ve výšce 7000 ft

METAR: K1A5 220050Z AUTO 00000KT 10SM SCT060 BKN070 22/21 A3004 RMK AO2 T02160205

Čas: 21:14 (01:14 UTC)


TAF: chybějící

Stav a předpovědi počasí z více než 4 000 letišť (zprávy METAR a TAF).

Červené a žluté tečky na mapě představují dostupné meteorologické stanice.

Když kurzor umístíte na tečku, zobrazí se název stanice.

Pak kliknutím zobrazíte stav a předpověď počasí.

Chcete-li změnit mapu, kliknutím na zelené tlačítko se znaménkem +mapu přiblížíte, kliknutím na zelené tlačítko se znaménkem – mapu oddálíte a kliknutím na zelené šipky přejdete na sousední mapy.


METAR-TAF: